Time;durP1;ratioP1;P1;durP2;ratioP2;P2;SDS_P1;SDS_P2;PMS_P1;PMS_P2;Temp;Humidity;BMP_temperature;BMP_pressure;BME280_temperature;BME280_humidity;BME280_pressure;Samples;Min_cycle;Max_cycle;Signal;HPM_P1;HPM_P2
2022/10/15 00:00:51;;;;;;;7.62;5.22;;;;;;;7.73;58.50;100203.65;1775256;80;21074;-41
2022/10/15 00:03:19;;;;;;;9.23;4.92;;;;;;;7.75;58.46;100205.45;1779813;80;21537;-41
2022/10/15 00:05:46;;;;;;;10.72;5.17;;;;;;;7.79;58.28;100203.73;1779989;80;21560;-40
2022/10/15 00:08:14;;;;;;;8.85;5.30;;;;;;;7.79;58.27;100203.73;1779990;80;21953;-41
2022/10/15 00:10:40;;;;;;;9.18;5.12;;;;;;;7.80;58.28;100194.49;1779696;80;21821;-41
2022/10/15 00:13:07;;;;;;;10.28;5.08;;;;;;;7.83;58.22;100201.97;1779734;80;20974;-41
2022/10/15 00:15:36;;;;;;;10.40;4.80;;;;;;;7.85;58.16;100201.08;1779701;80;20947;-41
2022/10/15 00:18:03;;;;;;;12.47;5.28;;;;;;;7.85;58.22;100195.12;1779713;80;21073;-40
2022/10/15 00:20:31;;;;;;;6.65;4.78;;;;;;;7.87;58.19;100198.86;1779779;80;20966;-40
2022/10/15 00:22:58;;;;;;;10.95;5.37;;;;;;;7.88;58.12;100199.66;1779552;80;21528;-41
2022/10/15 00:25:25;;;;;;;7.75;4.83;;;;;;;7.88;58.19;100203.16;1779661;80;21018;-41
2022/10/15 00:27:52;;;;;;;8.33;5.10;;;;;;;7.89;58.17;100196.61;1779656;80;21445;-41
2022/10/15 00:30:19;;;;;;;9.80;5.05;;;;;;;7.92;58.12;100197.89;1779649;80;21305;-41
2022/10/15 00:32:45;;;;;;;10.23;5.55;;;;;;;7.94;58.10;100193.75;1779741;80;21094;-40
2022/10/15 00:35:14;;;;;;;8.88;4.60;;;;;;;7.95;58.05;100193.98;1779648;80;20969;-41
2022/10/15 00:37:42;;;;;;;9.80;4.95;;;;;;;7.98;58.16;100193.92;1779654;80;21564;-40
2022/10/15 00:40:13;;;;;;;8.75;4.95;;;;;;;8.00;58.21;100188.42;1779661;80;21540;-40
2022/10/15 00:42:42;;;;;;;10.30;4.90;;;;;;;8.01;58.14;100188.66;1779537;80;20981;-40
2022/10/15 00:45:12;;;;;;;10.13;5.30;;;;;;;8.02;58.10;100190.25;1779684;80;21146;-41
2022/10/15 00:47:45;;;;;;;9.55;5.22;;;;;;;8.02;57.98;100186.20;1779568;80;21114;-41
2022/10/15 00:50:19;;;;;;;7.95;5.00;;;;;;;8.03;57.99;100187.80;1779971;80;21006;-41
2022/10/15 00:53:03;;;;;;;17.07;5.50;;;;;;;8.04;57.96;100187.20;1779671;80;20931;-41
2022/10/15 00:55:36;;;;;;;11.22;5.10;;;;;;;8.05;57.91;100190.16;1779582;80;20971;-40
2022/10/15 00:58:12;;;;;;;12.70;5.80;;;;;;;8.04;58.07;100185.30;1780842;80;21096;-40
2022/10/15 01:00:39;;;;;;;11.22;5.08;;;;;;;8.06;58.00;100188.48;1793411;80;21006;-41
2022/10/15 01:03:06;;;;;;;9.10;5.00;;;;;;;8.06;57.92;100186.34;1793853;80;20998;-41
2022/10/15 01:05:34;;;;;;;9.03;5.35;;;;;;;8.07;57.85;100190.08;1793755;80;20966;-41
2022/10/15 01:08:01;;;;;;;8.53;4.53;;;;;;;8.07;57.79;100186.03;1793708;80;21519;-41
2022/10/15 01:10:34;;;;;;;8.35;5.05;;;;;;;8.08;57.74;100178.73;1793872;80;21014;-41
2022/10/15 01:13:12;;;;;;;8.88;4.70;;;;;;;8.09;57.77;100186.48;1793322;80;20993;-41
2022/10/15 01:15:55;;;;;;;10.18;5.00;;;;;;;8.08;57.78;100179.52;1793571;80;21077;-41
2022/10/15 01:18:37;;;;;;;10.03;5.53;;;;;;;8.08;57.70;100176.82;1793526;80;20931;-41
2022/10/15 01:21:19;;;;;;;8.63;5.35;;;;;;;8.05;57.74;100179.35;1793777;80;21527;-40
2022/10/15 01:24:11;;;;;;;9.60;5.08;;;;;;;8.05;57.83;100178.00;1793431;80;21096;-41
2022/10/15 01:27:09;;;;;;;10.85;5.53;;;;;;;8.03;57.53;100175.64;1758687;80;21061;-41
2022/10/15 01:30:15;;;;;;;10.80;5.35;;;;;;;8.00;57.81;100174.92;1793430;80;21500;-40
2022/10/15 01:32:59;;;;;;;10.05;5.30;;;;;;;7.97;57.77;100165.33;1793518;80;20970;-40
2022/10/15 01:35:51;;;;;;;9.73;5.55;;;;;;;7.95;57.78;100172.39;1793636;80;21006;-40
2022/10/15 01:38:49;;;;;;;10.40;5.35;;;;;;;7.95;57.74;100176.99;1793761;80;21088;-40
2022/10/15 01:41:31;;;;;;;10.63;4.90;;;;;;;7.93;57.80;100168.44;1793469;80;20966;-40
2022/10/15 01:44:11;;;;;;;8.58;5.00;;;;;;;7.90;57.27;100176.61;1793738;80;20966;-41
2022/10/15 01:47:03;;;;;;;8.03;5.40;;;;;;;7.89;57.64;100172.90;1791800;80;21061;-40
2022/10/15 01:49:33;;;;;;;11.68;5.72;;;;;;;7.84;57.30;100182.73;1793493;80;21033;-40
2022/10/15 01:52:11;;;;;;;7.97;4.80;;;;;;;7.83;57.89;100183.88;1793578;80;21134;-41
2022/10/15 01:54:39;;;;;;;11.22;5.62;;;;;;;7.82;57.91;100182.83;1793287;80;21060;-40
2022/10/15 01:57:06;;;;;;;8.90;4.95;;;;;;;7.82;58.19;100182.83;1793360;80;21016;-40
2022/10/15 01:59:33;;;;;;;8.00;5.33;;;;;;;7.84;57.67;100189.48;1785286;80;21009;-41
2022/10/15 02:02:00;;;;;;;9.05;5.25;;;;;;;7.83;57.92;100188.47;1747340;80;21505;-41
2022/10/15 02:04:30;;;;;;;11.18;5.22;;;;;;;7.82;58.06;100190.93;1779743;80;21135;-40
2022/10/15 02:07:08;;;;;;;10.55;5.22;;;;;;;7.83;57.91;100189.27;1779819;80;21037;-41
2022/10/15 02:10:03;;;;;;;5.87;4.37;;;;;;;7.85;58.24;100185.67;1780051;80;20935;-41
2022/10/15 02:13:03;;;;;;;9.40;5.03;;;;;;;7.89;58.49;100194.50;1736933;80;20966;-40
2022/10/15 02:15:50;;;;;;;8.50;5.22;;;;;;;7.90;58.66;100196.86;1778734;80;20995;-40
2022/10/15 02:18:44;;;;;;;8.68;5.10;;;;;;;7.94;58.50;100187.00;1779594;80;21153;-40
2022/10/15 02:21:17;;;;;;;10.15;5.45;;;;;;;7.98;58.24;100193.36;1779529;80;20947;-40
2022/10/15 02:23:52;;;;;;;9.38;5.60;;;;;;;8.01;58.12;100188.66;1779800;80;20958;-41
2022/10/15 02:26:24;;;;;;;12.53;5.37;;;;;;;8.06;57.88;100193.09;1779560;80;20982;-40
2022/10/15 02:28:54;;;;;;;9.03;5.40;;;;;;;8.08;57.91;100195.72;1779782;80;21552;-40
2022/10/15 02:31:22;;;;;;;13.43;5.73;;;;;;;8.10;57.85;100195.38;1779758;80;21235;-41
2022/10/15 02:33:54;;;;;;;12.43;5.62;;;;;;;8.12;57.79;100193.96;1779472;80;20962;-41
2022/10/15 02:36:20;;;;;;;9.25;5.28;;;;;;;8.12;58.08;100198.02;1779419;80;21469;-41
2022/10/15 02:38:48;;;;;;;10.03;5.72;;;;;;;8.15;58.08;100198.70;1779523;80;21082;-41
2022/10/15 02:41:15;;;;;;;10.05;5.75;;;;;;;8.17;58.03;100192.98;1747397;80;21587;-41
2022/10/15 02:43:42;;;;;;;7.28;5.00;;;;;;;8.20;58.04;100193.13;1747035;80;23169;-41
2022/10/15 02:46:12;;;;;;;7.97;5.08;;;;;;;8.22;57.75;100196.31;1779801;80;20987;-41
2022/10/15 02:48:39;;;;;;;10.58;5.03;;;;;;;8.22;57.71;100196.31;1779616;80;21014;-41
2022/10/15 02:51:06;;;;;;;8.75;5.55;;;;;;;8.22;57.73;100197.66;1779568;80;21543;-40
2022/10/15 02:53:33;;;;;;;9.65;5.58;;;;;;;8.22;57.72;100193.61;1779775;80;21030;-40
2022/10/15 02:56:02;;;;;;;11.28;5.50;;;;;;;8.21;57.68;100197.42;1779616;80;21243;-41
2022/10/15 02:58:30;;;;;;;10.65;5.33;;;;;;;8.21;57.71;100201.48;1779871;80;20935;-41
2022/10/15 03:00:58;;;;;;;9.40;5.67;;;;;;;8.18;57.68;100197.28;1793774;80;21009;-40
2022/10/15 03:03:25;;;;;;;8.98;5.60;;;;;;;8.17;57.51;100195.14;1793754;80;21005;-41
2022/10/15 03:05:54;;;;;;;11.05;5.62;;;;;;;8.16;57.40;100200.85;1793746;80;20935;-41
2022/10/15 03:08:22;;;;;;;13.03;5.83;;;;;;;8.14;57.23;100197.11;1793760;80;21246;-41
2022/10/15 03:10:49;;;;;;;7.90;5.00;;;;;;;8.12;57.19;100193.16;1793640;80;21005;-40
2022/10/15 03:13:16;;;;;;;7.70;5.10;;;;;;;8.09;57.19;100195.94;1793808;80;20990;-41
2022/10/15 03:15:47;;;;;;;8.60;5.30;;;;;;;8.08;57.27;100193.58;1793217;80;21606;-41
2022/10/15 03:18:14;;;;;;;9.00;5.22;;;;;;;8.09;57.20;100200.54;1793503;80;20983;-40
2022/10/15 03:20:41;;;;;;;8.55;5.00;;;;;;;8.07;57.17;100199.53;1793617;80;21144;-41
2022/10/15 03:23:08;;;;;;;10.90;4.70;;;;;;;8.06;57.39;100203.89;1793541;80;21094;-41
2022/10/15 03:25:37;;;;;;;9.53;5.10;;;;;;;8.06;57.38;100199.29;1793536;80;21014;-40
2022/10/15 03:28:04;;;;;;;7.00;4.75;;;;;;;8.07;57.29;100203.59;1793596;80;20934;-41
2022/10/15 03:30:35;;;;;;;8.78;4.78;;;;;;;8.07;57.44;100198.73;1793454;80;21034;-40
2022/10/15 03:33:02;;;;;;;8.13;4.65;;;;;;;8.06;57.39;100195.23;1793469;80;21096;-41
2022/10/15 03:35:29;;;;;;;7.30;4.50;;;;;;;8.04;57.43;100196.11;1793566;80;21009;-41
2022/10/15 03:37:57;;;;;;;10.00;5.05;;;;;;;8.02;57.50;100194.86;1793481;80;21021;-41
2022/10/15 03:40:24;;;;;;;7.22;4.72;;;;;;;8.00;57.62;100195.17;1793617;80;20919;-40
2022/10/15 03:42:53;;;;;;;6.95;4.67;;;;;;;7.98;57.70;100187.97;1793556;80;21042;-41
2022/10/15 03:45:22;;;;;;;10.03;4.95;;;;;;;7.97;57.68;100196.37;1793330;80;21315;-41
2022/10/15 03:47:52;;;;;;;7.95;4.25;;;;;;;7.96;57.75;100194.78;1793414;80;20930;-41
2022/10/15 03:50:19;;;;;;;10.23;4.80;;;;;;;7.92;57.73;100185.75;1793548;80;20973;-41
2022/10/15 03:52:45;;;;;;;8.78;4.90;;;;;;;7.90;57.83;100193.36;1793554;80;20978;-41
2022/10/15 03:55:13;;;;;;;7.22;5.00;;;;;;;7.89;57.90;100191.80;1793627;80;21062;-41
2022/10/15 03:57:42;;;;;;;9.10;4.40;;;;;;;7.85;57.86;100187.58;1764543;80;21830;-41
2022/10/15 04:00:11;;;;;;;7.85;4.75;;;;;;;7.83;57.86;100191.17;1793753;80;21819;-41
2022/10/15 04:02:41;;;;;;;8.43;4.17;;;;;;;7.80;57.95;100191.23;1793975;80;21013;-40
2022/10/15 04:05:11;;;;;;;7.00;3.95;;;;;;;7.79;57.94;100197.74;1787772;80;21042;-41
2022/10/15 04:07:41;;;;;;;8.60;4.70;;;;;;;7.78;57.93;100195.39;1786741;78;21083;-41
2022/10/15 04:10:10;;;;;;;9.88;4.45;;;;;;;7.74;57.90;100198.49;1786178;80;21235;-41
2022/10/15 04:12:39;;;;;;;8.33;5.00;;;;;;;7.73;57.91;100202.30;1786097;79;21075;-40
2022/10/15 04:15:09;;;;;;;7.65;4.58;;;;;;;7.72;57.89;100196.66;1786013;80;20972;-40
2022/10/15 04:17:38;;;;;;;10.45;4.75;;;;;;;7.71;57.89;100205.30;1785950;79;21028;-40
2022/10/15 04:20:06;;;;;;;6.83;4.42;;;;;;;7.71;57.95;100201.81;1786005;80;21040;-40
2022/10/15 04:22:33;;;;;;;8.65;4.60;;;;;;;7.68;58.03;100201.11;1785866;80;21378;-41
2022/10/15 04:25:01;;;;;;;7.22;4.20;;;;;;;7.67;58.17;100204.92;1786021;79;21036;-40
2022/10/15 04:27:28;;;;;;;8.60;4.37;;;;;;;7.64;58.24;100206.36;1785964;80;20999;-40
2022/10/15 04:29:57;;;;;;;8.00;4.37;;;;;;;7.63;58.26;100200.72;1785532;80;21586;-40
2022/10/15 04:32:23;;;;;;;7.25;4.17;;;;;;;7.62;58.26;100206.42;1786153;80;21616;-41
2022/10/15 04:34:50;;;;;;;7.87;4.67;;;;;;;7.59;58.28;100202.48;1785916;80;21122;-41
2022/10/15 04:37:19;;;;;;;9.03;4.70;;;;;;;7.57;58.23;100201.20;1786038;80;21077;-40
2022/10/15 04:39:46;;;;;;;10.53;4.92;;;;;;;7.55;58.13;100206.90;1785772;80;21024;-40
2022/10/15 04:42:13;;;;;;;9.30;4.10;;;;;;;7.53;58.12;100199.70;1786027;80;21016;-40
2022/10/15 04:44:40;;;;;;;7.78;4.25;;;;;;;7.51;58.13;100200.55;1785795;80;21518;-40
2022/10/15 04:47:08;;;;;;;9.03;4.58;;;;;;;7.51;58.15;100211.91;1785912;79;21897;-41
2022/10/15 04:49:46;;;;;;;10.25;4.08;;;;;;;7.49;58.27;100209.55;1785355;80;21536;-40
2022/10/15 04:52:33;;;;;;;6.62;4.42;;;;;;;7.48;58.35;100211.20;1748606;81;21566;-40
2022/10/15 04:55:04;;;;;;;6.97;4.50;;;;;;;7.45;58.34;100209.94;1774489;80;21052;-40
2022/10/15 04:57:32;;;;;;;10.55;4.53;;;;;;;7.43;58.42;100214.30;1786155;80;21099;-40
2022/10/15 05:00:00;;;;;;;8.00;4.60;;;;;;;7.41;58.41;100214.36;1778776;80;23169;-41
2022/10/15 05:02:33;;;;;;;8.00;4.97;;;;;;;7.39;58.46;100223.34;1766865;81;20972;-40
2022/10/15 05:05:20;;;;;;;7.45;4.53;;;;;;;7.35;58.50;100225.89;1766881;81;21539;-40
2022/10/15 05:07:49;;;;;;;8.33;5.30;;;;;;;7.31;58.62;100219.52;1766806;81;21088;-41
2022/10/15 05:10:16;;;;;;;9.63;4.90;;;;;;;7.31;58.74;100218.75;1766870;81;21096;-40
2022/10/15 05:12:44;;;;;;;9.85;5.00;;;;;;;7.28;58.80;100221.51;1766717;81;23127;-40
2022/10/15 05:15:12;;;;;;;9.90;5.35;;;;;;;7.27;58.80;100222.61;1766691;81;20996;-40
2022/10/15 05:17:39;;;;;;;9.25;5.10;;;;;;;7.26;58.92;100221.59;1766638;81;21016;-40
2022/10/15 05:20:08;;;;;;;8.23;5.20;;;;;;;7.25;58.94;100220.00;1766737;81;21372;-40
2022/10/15 05:22:35;;;;;;;9.58;5.87;;;;;;;7.25;58.96;100225.40;1766938;81;21044;-40
2022/10/15 05:25:04;;;;;;;8.80;5.47;;;;;;;7.24;58.97;100228.65;1766677;81;21208;-40
2022/10/15 05:27:32;;;;;;;;;;;;;;;7.22;59.07;100229.50;1769310;81;20945;-40
2022/10/15 05:30:00;;;;;;;8.95;5.40;;;;;;;7.23;59.09;100233.80;1766673;81;20159;-40
2022/10/15 05:32:29;;;;;;;10.68;5.42;;;;;;;7.14;59.30;100233.00;1766694;81;21016;-40
2022/10/15 05:34:56;;;;;;;7.85;4.65;;;;;;;7.18;59.26;100223.71;1766549;81;21064;-40
2022/10/15 05:37:24;;;;;;;8.78;4.62;;;;;;;7.23;59.10;100231.65;1766988;81;21484;-40
2022/10/15 05:39:51;;;;;;;7.62;4.78;;;;;;;7.25;58.92;100231.59;1766442;81;21040;-40
2022/10/15 05:42:18;;;;;;;8.15;5.03;;;;;;;7.29;58.94;100231.19;1766668;81;21009;-40
2022/10/15 05:44:46;;;;;;;7.70;5.00;;;;;;;7.32;58.94;100230.55;1766709;81;20933;-41
2022/10/15 05:47:13;;;;;;;11.18;4.92;;;;;;;7.36;58.89;100234.20;1766715;81;21080;-40
2022/10/15 05:49:40;;;;;;;8.40;4.95;;;;;;;7.41;58.76;100239.44;1766590;81;21228;-40
2022/10/15 05:52:09;;;;;;;9.70;4.78;;;;;;;7.45;58.69;100237.47;1766702;81;21549;-40
2022/10/15 05:54:54;;;;;;;7.85;4.47;;;;;;;7.49;58.76;100241.13;1766825;81;21483;-40
2022/10/15 05:57:21;;;;;;;9.55;4.53;;;;;;;7.54;58.80;100239.61;1766666;81;21033;-40
2022/10/15 05:59:48;;;;;;;8.23;4.17;;;;;;;7.59;58.74;100243.50;1769865;80;21060;-41
2022/10/15 06:02:16;;;;;;;6.78;4.17;;;;;;;7.65;58.68;100239.55;1786247;80;20976;-40
2022/10/15 06:04:43;;;;;;;9.43;4.00;;;;;;;7.72;58.80;100243.89;1786017;80;20964;-40
2022/10/15 06:07:11;;;;;;;5.62;3.87;;;;;;;7.77;58.86;100239.12;1786077;79;20983;-40
2022/10/15 06:09:38;;;;;;;6.33;4.12;;;;;;;7.83;58.68;100237.86;1786024;79;20904;-40
2022/10/15 06:12:06;;;;;;;7.50;4.50;;;;;;;7.90;58.26;100250.86;1786192;80;21036;-41
2022/10/15 06:14:34;;;;;;;5.90;4.12;;;;;;;7.97;58.37;100243.63;1786125;80;21097;-40
2022/10/15 06:17:01;;;;;;;6.00;3.37;;;;;;;8.02;58.39;100245.61;1785766;79;21043;-40
2022/10/15 06:19:28;;;;;;;7.25;3.92;;;;;;;8.08;58.40;100251.09;1785943;80;21056;-40
2022/10/15 06:21:55;;;;;;;7.80;4.10;;;;;;;8.15;58.56;100249.23;1786119;79;21526;-41
2022/10/15 06:24:24;;;;;;;6.08;3.33;;;;;;;8.21;58.28;100250.09;1786099;80;21561;-40
2022/10/15 06:26:51;;;;;;;4.83;3.30;;;;;;;8.24;57.90;100257.55;1785934;79;23151;-40
2022/10/15 06:29:18;;;;;;;8.53;3.37;;;;;;;8.26;56.90;100260.73;1785948;79;21012;-40
2022/10/15 06:31:45;;;;;;;6.15;3.47;;;;;;;8.30;56.07;100259.55;1786236;79;21498;-41
2022/10/15 06:34:13;;;;;;;7.37;2.98;;;;;;;8.33;56.37;100252.73;1786034;80;21055;-40
2022/10/15 06:36:40;;;;;;;3.90;3.05;;;;;;;8.39;56.27;100256.82;1786062;79;21047;-41
2022/10/15 06:39:07;;;;;;;5.05;3.12;;;;;;;8.47;56.22;100262.78;1785888;79;23089;-41
2022/10/15 06:41:34;;;;;;;6.33;3.15;;;;;;;8.52;55.69;100257.20;1785957;80;20971;-40
2022/10/15 06:44:01;;;;;;;6.47;3.08;;;;;;;8.57;55.96;100256.44;1785913;79;21044;-40
2022/10/15 06:46:29;;;;;;;5.87;3.37;;;;;;;8.63;55.76;100256.50;1785970;80;21031;-41
2022/10/15 06:48:56;;;;;;;5.67;3.02;;;;;;;8.71;55.58;100262.42;1786188;80;21004;-41
2022/10/15 06:51:23;;;;;;;5.62;3.05;;;;;;;8.77;54.92;100263.03;1786001;80;21218;-40
2022/10/15 06:53:50;;;;;;;5.10;2.92;;;;;;;8.82;54.69;100258.80;1785953;80;21071;-41
2022/10/15 06:56:16;;;;;;;5.17;2.95;;;;;;;8.87;54.55;100262.67;1786155;80;21063;-41
2022/10/15 06:58:45;;;;;;;7.17;2.95;;;;;;;8.95;54.90;100265.11;1786002;80;20964;-40
2022/10/15 07:01:12;;;;;;;7.30;2.83;;;;;;;9.02;55.01;100262.67;1786014;80;21032;-41
2022/10/15 07:03:41;;;;;;;6.40;3.02;;;;;;;9.12;54.94;100270.41;1786086;79;21008;-41
2022/10/15 07:06:08;;;;;;;3.60;3.00;;;;;;;9.23;54.84;100273.54;1786292;79;21040;-41
2022/10/15 07:08:35;;;;;;;5.40;2.87;;;;;;;9.34;54.77;100269.34;1786187;80;21033;-41
2022/10/15 07:11:05;;;;;;;5.67;3.02;;;;;;;9.45;54.59;100269.16;1786284;80;21011;-41
2022/10/15 07:13:33;;;;;;;2.80;2.20;;;;;;;9.55;53.85;100272.27;1786574;80;21506;-40
2022/10/15 07:16:09;;;;;;;6.80;2.83;;;;;;;9.67;53.38;100271.55;1786012;80;21204;-40
2022/10/15 07:18:36;;;;;;;6.80;2.92;;;;;;;9.79;52.04;100278.93;1786007;80;20964;-41
2022/10/15 07:21:05;;;;;;;6.75;2.90;;;;;;;9.88;51.96;100279.09;1785940;79;20936;-41
2022/10/15 07:23:33;;;;;;;5.62;2.58;;;;;;;10.01;51.19;100285.36;1786334;80;21079;-40
2022/10/15 07:26:01;;;;;;;4.53;2.30;;;;;;;10.13;51.01;100280.53;1785898;80;20992;-41
2022/10/15 07:28:28;;;;;;;5.08;2.60;;;;;;;10.26;51.23;100283.56;1786157;80;21026;-41
2022/10/15 07:31:00;;;;;;;2.83;2.47;;;;;;;10.39;50.94;100279.75;1785693;80;21481;-41
2022/10/15 07:33:29;;;;;;;5.62;2.45;;;;;;;10.53;50.42;100281.59;1786305;80;21490;-40
2022/10/15 07:36:03;;;;;;;3.70;2.42;;;;;;;10.66;50.25;100286.45;1786019;79;21023;-41
2022/10/15 07:38:31;;;;;;;5.55;2.33;;;;;;;10.79;49.91;100282.65;1786357;80;21561;-41
2022/10/15 07:41:00;;;;;;;5.25;2.62;;;;;;;10.93;48.92;100291.80;1785914;80;21214;-41
2022/10/15 07:43:26;;;;;;;3.50;2.40;;;;;;;11.04;48.39;100287.48;1786133;80;20933;-41
2022/10/15 07:45:53;;;;;;;4.92;2.50;;;;;;;11.14;48.52;100289.19;1785956;79;21525;-41
2022/10/15 07:48:21;;;;;;;6.30;2.85;;;;;;;11.24;47.73;100295.52;1786120;80;21036;-41
2022/10/15 07:51:01;;;;;;;6.70;2.45;;;;;;;11.36;47.99;100291.21;1785837;80;21047;-41
2022/10/15 07:53:28;;;;;;;4.75;2.62;;;;;;;11.47;47.48;100290.98;1785913;80;23097;-41
2022/10/15 07:56:00;;;;;;;3.05;2.30;;;;;;;11.57;47.20;100289.91;1785780;80;21484;-41
2022/10/15 07:58:30;;;;;;;6.50;2.52;;;;;;;11.67;46.81;100294.87;1756693;80;20972;-41
2022/10/15 08:01:00;;;;;;;4.97;2.35;;;;;;;11.78;46.73;100287.63;1770683;80;22186;-41
2022/10/15 08:03:27;;;;;;;7.85;2.52;;;;;;;11.88;46.49;100287.14;1754945;81;21560;-41
2022/10/15 08:05:55;;;;;;;4.85;2.47;;;;;;;11.97;46.28;100286.42;1754837;81;21274;-41
2022/10/15 08:08:22;;;;;;;4.12;2.52;;;;;;;12.07;46.76;100288.09;1755829;80;21470;-41
2022/10/15 08:10:49;;;;;;;5.50;2.70;;;;;;;12.17;46.36;100287.59;1757667;80;21609;-41
2022/10/15 08:13:15;;;;;;;4.50;2.60;;;;;;;12.29;45.33;100288.68;1748132;80;21033;-41
2022/10/15 08:15:47;;;;;;;5.85;2.40;;;;;;;12.36;45.85;100282.84;1742139;80;21053;-41
2022/10/15 08:18:19;;;;;;;4.08;2.87;;;;;;;12.47;45.68;100277.69;1760645;80;21008;-41
2022/10/15 08:20:46;;;;;;;6.20;2.80;;;;;;;12.54;44.23;100275.92;1758473;80;21008;-41
2022/10/15 08:23:15;;;;;;;4.10;2.30;;;;;;;12.60;44.97;100279.98;1756582;80;21031;-41
2022/10/15 08:25:43;;;;;;;7.78;2.70;;;;;;;12.70;45.42;100277.87;1759394;81;21542;-41
2022/10/15 08:28:12;;;;;;;4.25;2.20;;;;;;;12.80;44.94;100277.34;1758731;80;21075;-41
2022/10/15 08:30:39;;;;;;;4.95;2.60;;;;;;;12.87;42.41;100274.81;1760953;81;21148;-43
2022/10/15 08:33:12;;;;;;;5.22;2.35;;;;;;;12.90;42.37;100277.61;1759928;81;20976;-45
2022/10/15 08:35:42;;;;;;;4.00;2.25;;;;;;;12.95;42.78;100273.27;1760776;80;20996;-45
2022/10/15 08:38:10;;;;;;;4.60;2.40;;;;;;;13.05;42.70;100275.45;1758529;80;21069;-44
2022/10/15 08:40:41;;;;;;;6.12;2.60;;;;;;;13.13;41.28;100270.98;1764324;80;21557;-44
2022/10/15 08:43:17;;;;;;;5.00;2.72;;;;;;;13.19;41.44;100278.30;1764881;80;21297;-44
2022/10/15 08:45:44;;;;;;;3.72;2.17;;;;;;;13.25;41.25;100282.34;1738760;81;21011;-44
2022/10/15 08:48:27;;;;;;;4.15;2.20;;;;;;;13.28;41.99;100276.17;1762027;80;21935;-45
2022/10/15 08:51:09;;;;;;;7.95;2.52;;;;;;;13.35;42.13;100279.86;1767159;80;20921;-45
2022/10/15 08:53:44;;;;;;;3.40;2.50;;;;;;;13.47;42.65;100275.64;1735962;81;21064;-44
2022/10/15 08:56:29;;;;;;;4.40;2.60;;;;;;;13.62;41.76;100279.45;1760114;80;21269;-45
2022/10/15 08:59:04;;;;;;;4.05;2.30;;;;;;;13.74;41.51;100274.45;1763635;80;20928;-45
2022/10/15 09:01:45;;;;;;;6.08;2.75;;;;;;;13.85;42.23;100259.88;1768776;79;21067;-45
2022/10/15 09:04:41;;;;;;;3.83;2.40;;;;;;;14.00;42.20;100263.68;1771023;80;21495;-45
2022/10/15 09:07:26;;;;;;;5.22;2.70;;;;;;;14.09;41.05;100264.23;1733893;82;20906;-45
2022/10/15 09:09:58;;;;;;;3.47;2.33;;;;;;;14.17;41.05;100264.61;1740184;80;21637;-45
2022/10/15 09:12:46;;;;;;;4.90;2.70;;;;;;;14.28;41.47;100271.63;1746606;80;21559;-45
2022/10/15 09:15:16;;;;;;;3.67;2.58;;;;;;;14.38;39.87;100268.31;1742403;81;20988;-45
2022/10/15 09:17:43;;;;;;;;;;;;;;;14.39;39.78;100269.10;1744877;80;20918;-45
2022/10/15 09:20:27;;;;;;;4.85;2.60;;;;;;;14.44;40.73;100266.08;1739975;80;20173;-45
2022/10/15 09:22:54;;;;;;;5.17;3.08;;;;;;;14.45;40.31;100271.75;1737756;80;23177;-45
2022/10/15 09:25:23;;;;;;;8.13;3.12;;;;;;;14.52;39.66;100261.77;1740474;80;21001;-45
2022/10/15 09:27:51;;;;;;;4.78;2.92;;;;;;;14.62;40.30;100264.47;1740805;82;21005;-45
2022/10/15 09:30:26;;;;;;;3.90;2.83;;;;;;;14.75;40.48;100271.30;1740779;80;21065;-45
2022/10/15 09:33:17;;;;;;;5.22;3.00;;;;;;;14.91;40.23;100265.72;1739408;80;21099;-45
2022/10/15 09:36:16;;;;;;;5.78;2.80;;;;;;;15.05;39.88;100266.73;1739561;80;21791;-45
2022/10/15 09:39:01;;;;;;;5.72;2.95;;;;;;;15.19;38.14;100268.88;1739428;80;21546;-45
2022/10/15 09:41:42;;;;;;;3.98;2.60;;;;;;;15.22;38.44;100264.83;1742639;80;21010;-45
2022/10/15 09:44:12;;;;;;;4.15;2.60;;;;;;;15.29;39.16;100264.72;1740221;80;21681;-45
2022/10/15 10:17:17;;;;;;;4.03;2.45;;;;;;;16.70;36.49;100263.64;1779673;79;25592;-42
2022/10/15 10:19:48;;;;;;;6.08;2.70;;;;;;;16.75;35.75;100265.27;1753739;80;21221;-42
2022/10/15 10:22:19;;;;;;;7.72;2.77;;;;;;;16.72;35.49;100264.06;1742870;81;21565;-43
2022/10/15 10:24:47;;;;;;;4.40;2.80;;;;;;;16.65;34.83;100268.13;1751334;80;20969;-42
2022/10/15 10:27:26;;;;;;;3.80;2.47;;;;;;;16.62;35.70;100260.65;1743952;80;20984;-43
2022/10/15 10:29:59;;;;;;;5.33;3.00;;;;;;;16.62;34.96;100262.02;1751578;80;21044;-43
2022/10/15 10:32:30;;;;;;;8.20;2.98;;;;;;;16.65;35.69;100268.70;1741599;81;21072;-41
2022/10/15 10:34:58;;;;;;;4.55;2.50;;;;;;;16.74;35.17;100261.74;1742328;80;21149;-38
2022/10/15 10:43:55;;;;;;;5.00;2.90;;;;;;;17.26;35.03;100249.59;1714872;81;21114;-42
2022/10/15 10:46:25;;;;;;;4.90;2.65;;;;;;;17.40;34.01;100254.36;1723732;81;20959;-43
2022/10/15 10:48:52;;;;;;;6.42;3.08;;;;;;;17.42;34.15;100245.76;1717921;81;21229;-43
2022/10/15 10:51:25;;;;;;;3.17;2.10;;;;;;;17.51;34.47;100251.09;1663307;84;21095;-43
2022/10/15 10:54:03;;;;;;;6.12;2.70;;;;;;;17.64;34.11;100238.64;1685971;84;21585;-43
2022/10/15 10:56:42;;;;;;;3.98;2.12;;;;;;;17.73;35.07;100241.81;1709523;81;21039;-43
2022/10/15 10:59:14;;;;;;;4.22;2.42;;;;;;;17.90;34.26;100238.95;1718313;81;21776;-43
2022/10/15 11:01:41;;;;;;;6.80;2.65;;;;;;;18.09;33.84;100235.08;1666505;85;21183;-39
2022/10/15 11:04:18;;;;;;;6.70;2.70;;;;;;;18.28;33.71;100229.81;1687792;84;21038;-39
2022/10/15 11:06:54;;;;;;;7.37;2.87;;;;;;;18.49;33.56;100232.59;1754391;81;21019;-39
2022/10/15 11:09:55;;;;;;;4.28;2.70;;;;;;;18.71;32.84;100227.91;1732112;81;21076;-39
2022/10/15 11:12:35;;;;;;;3.90;2.50;;;;;;;18.81;32.25;100237.52;1723310;81;20968;-39
2022/10/15 11:15:24;;;;;;;4.28;2.30;;;;;;;18.66;31.22;100233.20;1724697;81;25209;-39
2022/10/15 11:18:19;;;;;;;3.65;2.40;;;;;;;18.45;32.56;100228.45;1709682;83;21100;-39
2022/10/15 11:21:09;;;;;;;6.20;2.87;;;;;;;18.39;32.52;100225.92;1675464;84;20969;-39
2022/10/15 11:24:00;;;;;;;3.67;2.37;;;;;;;18.46;32.48;100230.03;1717390;83;21096;-39
2022/10/15 11:26:46;;;;;;;6.08;2.60;;;;;;;18.64;32.79;100230.84;1716379;82;21039;-39
2022/10/15 11:29:46;;;;;;;4.30;2.60;;;;;;;18.90;32.16;100230.25;1693702;83;21251;-39
2022/10/15 11:32:48;;;;;;;4.78;2.50;;;;;;;19.14;31.76;100225.30;1718583;83;21104;-39
2022/10/15 11:35:36;;;;;;;4.25;2.60;;;;;;;19.42;31.09;100225.81;1688629;83;21060;-39
2022/10/15 11:38:28;;;;;;;8.55;2.58;;;;;;;19.60;30.07;100229.33;1717397;83;21021;-39
2022/10/15 11:41:38;;;;;;;4.28;2.37;;;;;;;19.55;29.97;100222.88;1677168;84;21053;-39
2022/10/15 11:44:32;;;;;;;3.95;2.45;;;;;;;19.55;31.07;100220.12;1718455;83;21257;-39
2022/10/15 11:47:32;;;;;;;3.83;2.20;;;;;;;19.95;31.42;100224.23;1715528;83;21533;-39
2022/10/15 11:50:20;;;;;;;5.42;2.27;;;;;;;20.48;30.02;100214.90;1704326;82;21478;-39
2022/10/15 11:53:15;;;;;;;2.90;2.10;;;;;;;20.97;29.74;100219.17;1715774;83;21791;-39
2022/10/15 11:56:15;;;;;;;3.65;2.42;;;;;;;21.44;28.80;100209.26;1715844;83;21041;-39
2022/10/15 11:58:49;;;;;;;5.05;2.20;;;;;;;21.92;28.50;100209.82;1715790;83;21246;-39
2022/10/15 12:01:24;;;;;;;3.37;1.98;;;;;;;22.44;27.72;100202.56;1698646;83;21040;-39
2022/10/15 12:04:00;;;;;;;4.17;2.08;;;;;;;22.82;27.37;100206.67;1658954;84;21524;-40
2022/10/15 12:06:31;;;;;;;6.22;2.37;;;;;;;23.17;26.79;100209.41;1698372;83;21101;-39
2022/10/15 12:08:58;;;;;;;3.92;2.15;;;;;;;23.37;25.67;100212.19;1678919;83;21103;-40
2022/10/15 12:11:49;;;;;;;3.17;2.00;;;;;;;23.53;24.87;100201.20;1714671;82;23175;-39
2022/10/15 12:14:47;;;;;;;3.05;2.17;;;;;;;23.50;24.64;100204.83;1716475;82;21593;-39
2022/10/15 12:17:22;;;;;;;4.30;2.25;;;;;;;23.53;24.80;100209.50;1705872;83;21061;-39
2022/10/15 12:20:03;;;;;;;3.72;2.02;;;;;;;23.68;25.84;100205.83;1713874;83;21152;-40
2022/10/15 12:22:34;;;;;;;3.17;2.22;;;;;;;24.05;25.41;100204.64;1710373;82;21533;-39
2022/10/15 12:25:03;;;;;;;2.52;1.80;;;;;;;24.43;24.78;100204.97;1751096;81;20881;-39
2022/10/15 12:27:33;;;;;;;2.77;1.90;;;;;;;24.75;24.36;100206.33;1752258;81;20992;-40
2022/10/15 12:30:10;;;;;;;3.80;2.42;;;;;;;25.03;23.85;100200.06;1753399;81;21024;-39
2022/10/15 12:32:42;;;;;;;3.67;1.90;;;;;;;25.29;23.64;100198.17;1754402;81;21434;-39